Time;durP1;ratioP1;P1;durP2;ratioP2;P2;SDS_P1;SDS_P2;PMS_P1;PMS_P2;Temp;Humidity;BMP_temperature;BMP_pressure;BME280_temperature;BME280_humidity;BME280_pressure;Samples;Min_cycle;Max_cycle;Signal;HPM_P1;HPM_P2
2022/04/16 00:02:01;;;;;;;5.35;2.08;;;;;;;4.00;77.43;101763.66;1684002;85;21120;-69
2022/04/16 00:04:28;;;;;;;7.47;2.55;;;;;;;3.99;77.38;101770.73;1684840;85;21509;-69
2022/04/16 00:06:57;;;;;;;5.55;2.10;;;;;;;3.97;77.30;101770.45;1684651;85;21037;-69
2022/04/16 00:09:23;;;;;;;5.60;1.90;;;;;;;3.96;77.24;101774.02;1663127;85;21563;-69
2022/04/16 00:11:49;;;;;;;5.15;2.08;;;;;;;3.93;77.16;101770.26;1684770;85;21014;-69
2022/04/16 00:14:15;;;;;;;5.08;2.22;;;;;;;3.89;77.08;101779.30;1685100;84;21001;-69
2022/04/16 00:16:42;;;;;;;6.72;2.10;;;;;;;3.86;77.00;101776.85;1684643;85;21146;-69
2022/04/16 00:19:09;;;;;;;5.95;2.55;;;;;;;3.83;76.91;101781.00;1684519;85;21044;-69
2022/04/16 00:21:35;;;;;;;7.30;2.33;;;;;;;3.80;76.80;101787.78;1684761;85;21512;-69
2022/04/16 00:24:01;;;;;;;6.53;2.00;;;;;;;3.77;76.69;101783.52;1684704;85;21045;-69
2022/04/16 00:26:28;;;;;;;6.55;2.33;;;;;;;3.74;76.57;101788.12;1684906;85;21116;-69
2022/04/16 00:28:54;;;;;;;4.12;2.20;;;;;;;3.72;76.46;101795.30;1684401;85;21103;-69
2022/04/16 00:31:21;;;;;;;6.72;2.20;;;;;;;3.71;76.35;101801.52;1655228;85;21027;-69
2022/04/16 00:33:47;;;;;;;6.65;2.42;;;;;;;3.69;76.26;101802.09;1655393;86;21095;-69
2022/04/16 00:36:14;;;;;;;4.45;2.65;;;;;;;3.69;76.18;101807.36;1655571;86;21342;-69
2022/04/16 00:38:41;;;;;;;4.05;1.85;;;;;;;3.67;76.09;101810.54;1655619;86;21055;-69
2022/04/16 00:41:07;;;;;;;6.00;1.95;;;;;;;3.64;76.00;101816.86;1656085;85;21155;-69
2022/04/16 00:43:33;;;;;;;6.25;2.40;;;;;;;3.64;75.89;101813.37;1657183;85;21004;-69
2022/04/16 00:45:59;;;;;;;4.55;2.08;;;;;;;3.61;75.81;101809.13;1655940;85;21015;-69
2022/04/16 00:48:25;;;;;;;7.87;2.62;;;;;;;3.61;75.73;101808.27;1708890;83;21573;-69
2022/04/16 00:50:53;;;;;;;2.92;2.00;;;;;;;3.61;75.63;101813.55;1708624;84;21031;-69
2022/04/16 00:53:20;;;;;;;4.58;2.77;;;;;;;3.57;75.52;101804.12;1709033;84;21014;-69
2022/04/16 00:55:46;;;;;;;4.85;1.98;;;;;;;3.56;75.42;101805.05;1709136;84;20994;-69
2022/04/16 00:58:12;;;;;;;7.62;2.30;;;;;;;3.51;75.29;101807.52;1709100;84;21010;-69
2022/04/16 01:00:38;;;;;;;7.65;2.62;;;;;;;3.48;75.19;101803.71;1709047;84;20971;-69
2022/04/16 01:03:05;;;;;;;7.17;3.00;;;;;;;3.49;75.10;101807.20;1708853;83;20986;-69
2022/04/16 01:05:31;;;;;;;8.73;3.27;;;;;;;3.47;75.03;101807.31;1708868;84;21724;-69
2022/04/16 01:07:59;;;;;;;4.85;1.82;;;;;;;3.46;74.94;101808.23;1708928;84;21037;-69
2022/04/16 01:10:27;;;;;;;5.53;2.05;;;;;;;3.45;74.86;101814.44;1709252;84;20995;-69
2022/04/16 01:12:54;;;;;;;4.33;2.10;;;;;;;3.43;74.79;101817.66;1709068;84;21468;-69
2022/04/16 01:15:21;;;;;;;7.90;2.35;;;;;;;3.43;74.69;101824.24;1708771;84;21054;-69
2022/04/16 01:17:48;;;;;;;5.37;2.20;;;;;;;3.41;74.62;101824.78;1709120;84;21151;-69
2022/04/16 01:20:16;;;;;;;3.70;2.02;;;;;;;3.39;74.56;101829.77;1708647;84;21487;-69
2022/04/16 01:22:45;;;;;;;7.00;2.05;;;;;;;3.37;74.48;101821.97;1709057;84;21054;-69
2022/04/16 01:25:11;;;;;;;10.35;2.05;;;;;;;3.32;74.44;101829.28;1709891;82;21043;-69
2022/04/16 01:27:43;;;;;;;6.95;2.10;;;;;;;3.26;74.40;101828.33;1709212;83;21050;-69
2022/04/16 01:30:06;;;;;;;6.97;2.60;;;;;;;3.21;74.33;101827.73;1706087;82;21314;-69
2022/04/16 01:32:33;;;;;;;4.35;2.08;;;;;;;3.14;74.26;101826.84;1731911;81;21043;-69
2022/04/16 01:35:00;;;;;;;4.90;2.65;;;;;;;3.08;74.21;101830.69;1731617;82;21026;-69
2022/04/16 01:37:33;;;;;;;7.12;2.90;;;;;;;3.03;74.14;101827.45;1731987;82;21519;-69
2022/04/16 01:39:54;;;;;;;5.35;2.85;;;;;;;2.96;74.10;101831.37;1731997;82;21039;-69
2022/04/16 01:42:21;;;;;;;4.95;2.33;;;;;;;2.91;74.05;101840.02;1731762;82;21554;-69
2022/04/16 01:44:47;;;;;;;5.78;2.50;;;;;;;2.87;74.04;101850.34;1731744;82;21014;-69
2022/04/16 01:47:13;;;;;;;6.33;2.98;;;;;;;2.82;74.01;101849.73;1731998;82;20920;-69
2022/04/16 01:49:39;;;;;;;8.40;3.10;;;;;;;2.79;73.99;101860.44;1731587;82;21047;-69
2022/04/16 01:52:06;;;;;;;6.78;3.25;;;;;;;2.75;73.98;101856.27;1731849;82;21062;-70
2022/04/16 01:54:33;;;;;;;8.98;3.15;;;;;;;2.72;73.96;101868.30;1732061;82;21043;-69
2022/04/16 01:56:59;;;;;;;7.10;2.55;;;;;;;2.71;73.97;101874.52;1711295;82;21063;-69
2022/04/16 01:59:25;;;;;;;6.67;3.60;;;;;;;2.69;73.95;101864.52;1731955;82;21030;-69
2022/04/16 02:01:51;;;;;;;5.78;2.77;;;;;;;2.68;73.93;101875.97;1731672;82;21897;-69
2022/04/16 02:04:17;;;;;;;8.35;3.80;;;;;;;2.66;73.93;101876.08;1731925;82;20884;-69
2022/04/16 02:06:43;;;;;;;6.65;4.15;;;;;;;2.66;73.92;101874.76;1729146;81;22179;-69
2022/04/16 02:09:09;;;;;;;8.30;4.72;;;;;;;2.64;73.93;101873.15;1696442;84;21046;-69
2022/04/16 02:11:35;;;;;;;8.95;5.37;;;;;;;2.64;73.93;101878.42;1731198;82;21005;-69
2022/04/16 02:14:02;;;;;;;7.85;3.90;;;;;;;2.61;73.93;101879.88;1732087;82;20975;-69
2022/04/16 02:16:28;;;;;;;10.50;4.40;;;;;;;2.59;73.92;101875.17;1696574;84;21498;-69
2022/04/16 02:18:54;;;;;;;5.87;3.12;;;;;;;2.57;73.90;101884.95;1732448;82;21831;-69
2022/04/16 02:21:22;;;;;;;6.30;2.60;;;;;;;2.53;73.90;101883.77;1696463;84;21671;-69
2022/04/16 02:23:51;;;;;;;5.85;2.30;;;;;;;2.49;73.88;101886.20;1731449;82;21066;-69
2022/04/16 02:26:16;;;;;;;8.98;2.80;;;;;;;2.46;73.90;101885.03;1696179;84;20990;-69
2022/04/16 02:28:42;;;;;;;5.70;2.30;;;;;;;2.41;73.89;101887.07;1732809;82;21050;-69
2022/04/16 02:31:08;;;;;;;6.47;2.95;;;;;;;2.37;73.89;101897.84;1696211;84;21219;-69
2022/04/16 02:33:34;;;;;;;5.87;3.33;;;;;;;2.33;73.90;101889.25;1731421;82;20983;-69
2022/04/16 02:36:00;;;;;;;7.05;3.10;;;;;;;2.32;73.91;101895.44;1731996;82;21027;-69
2022/04/16 02:38:26;;;;;;;6.58;3.90;;;;;;;2.30;73.90;101894.68;1732128;82;20970;-69
2022/04/16 02:40:52;;;;;;;8.10;3.95;;;;;;;2.29;73.89;101890.34;1732081;82;21054;-69
2022/04/16 02:43:18;;;;;;;6.75;3.75;;;;;;;2.27;73.91;101902.73;1732029;82;21161;-69
2022/04/16 02:48:29;;;;;;;12.03;4.80;;;;;;;2.23;73.90;101906.92;1739782;82;21685;-69
2022/04/16 02:50:55;;;;;;;11.83;5.08;;;;;;;2.20;73.92;101905.77;1696932;83;21018;-69
2022/04/16 02:53:21;;;;;;;8.83;4.22;;;;;;;2.19;73.92;101908.86;1731672;82;20891;-69
2022/04/16 02:55:48;;;;;;;9.38;5.85;;;;;;;2.16;73.94;101911.65;1732125;82;21505;-69
2022/04/16 02:58:14;;;;;;;7.37;5.25;;;;;;;2.11;73.95;101918.91;1739795;82;21042;-69
2022/04/16 03:00:41;;;;;;;9.00;3.87;;;;;;;2.08;73.95;101912.50;1696370;83;21010;-69
2022/04/16 03:03:08;;;;;;;7.50;3.72;;;;;;;2.04;73.96;101916.25;1732288;82;20983;-69
2022/04/16 03:05:34;;;;;;;5.78;2.87;;;;;;;2.00;74.00;101926.53;1739725;82;20991;-69
2022/04/16 03:08:01;;;;;;;5.28;1.80;;;;;;;1.96;74.01;101929.78;1732168;81;21181;-69
2022/04/16 03:10:27;;;;;;;7.25;3.17;;;;;;;1.90;74.02;101931.38;1732101;82;21527;-69
2022/04/16 03:12:55;;;;;;;4.87;3.33;;;;;;;1.87;74.03;101926.73;1731987;82;20991;-69
2022/04/16 03:18:07;;;;;;;5.65;3.75;;;;;;;1.81;74.07;101931.00;1696879;84;21054;-69
2022/04/16 03:20:33;;;;;;;6.37;3.72;;;;;;;1.78;74.09;101931.16;1696991;84;21167;-69
2022/04/16 03:23:00;;;;;;;10.93;4.10;;;;;;;1.75;74.11;101935.26;1732224;82;21054;-69
2022/04/16 03:25:27;;;;;;;10.38;4.65;;;;;;;1.72;74.13;101940.67;1731921;82;21019;-69
2022/04/16 03:27:54;;;;;;;7.37;4.03;;;;;;;1.71;74.18;101941.59;1739600;82;21531;-69
2022/04/16 03:30:23;;;;;;;9.73;4.00;;;;;;;1.70;74.20;101942.51;1735156;81;21010;-69
2022/04/16 03:32:49;;;;;;;11.50;4.28;;;;;;;1.71;74.23;101942.45;1709654;83;21118;-69
2022/04/16 03:35:17;;;;;;;6.28;3.72;;;;;;;1.74;74.25;101942.30;1709585;84;21097;-69
2022/04/16 03:37:43;;;;;;;14.93;9.13;;;;;;;1.77;74.27;101953.11;1711999;83;20986;-69
2022/04/16 03:40:10;;;;;;;8.40;4.28;;;;;;;1.77;74.31;101955.74;1709569;83;21049;-69
2022/04/16 03:42:48;;;;;;;6.70;3.67;;;;;;;1.77;74.34;101957.06;1709496;83;21053;-69
2022/04/16 03:45:23;;;;;;;8.78;3.95;;;;;;;1.77;74.38;101957.06;1709577;84;21156;-69
2022/04/16 03:47:51;;;;;;;9.85;3.83;;;;;;;1.78;74.41;101950.88;1709538;83;21085;-69
2022/04/16 03:50:18;;;;;;;8.95;5.95;;;;;;;1.80;74.45;101960.84;1709652;84;21489;-69
2022/04/16 03:52:45;;;;;;;6.92;4.53;;;;;;;1.81;74.46;101955.98;1709730;84;21499;-69
2022/04/16 04:00:44;;;;;;;9.00;4.65;;;;;;;1.85;74.51;101965.43;1709579;84;21054;-69
2022/04/16 04:03:12;;;;;;;8.93;5.03;;;;;;;1.84;74.52;101964.58;1709260;84;21009;-69
2022/04/16 04:05:39;;;;;;;9.23;4.92;;;;;;;1.83;74.53;101971.24;1708814;83;21009;-69
2022/04/16 04:08:06;;;;;;;12.60;5.78;;;;;;;1.82;74.55;101964.27;1689414;84;21064;-69
2022/04/16 04:10:32;;;;;;;9.75;3.85;;;;;;;1.79;74.56;101969.23;1709811;82;21526;-69
2022/04/16 04:12:58;;;;;;;11.38;4.60;;;;;;;1.75;74.57;101964.19;1709326;82;21053;-69
2022/04/16 04:15:26;;;;;;;7.05;3.42;;;;;;;1.69;74.62;101973.70;1709529;83;21085;-69
2022/04/16 04:17:52;;;;;;;10.10;5.33;;;;;;;1.65;74.64;101968.20;1709403;83;21049;-69
2022/04/16 04:20:18;;;;;;;7.33;4.40;;;;;;;1.62;74.67;101974.92;1709656;83;21013;-69
2022/04/16 04:22:44;;;;;;;10.82;3.42;;;;;;;1.59;74.68;101975.05;1709571;84;21842;-69
2022/04/16 04:25:10;;;;;;;5.08;3.02;;;;;;;1.57;74.69;101972.96;1709247;84;21065;-69
2022/04/16 04:27:36;;;;;;;6.53;3.98;;;;;;;1.60;74.74;101976.30;1709315;84;21021;-69
2022/04/16 04:30:04;;;;;;;9.08;4.58;;;;;;;2.07;74.97;101977.06;1709579;83;21002;-69
2022/04/16 04:32:30;;;;;;;9.20;3.80;;;;;;;3.11;75.32;101974.61;1702450;83;21079;-69
2022/04/16 04:34:56;;;;;;;7.58;4.00;;;;;;;3.78;75.03;101979.14;1698305;83;21173;-69
2022/04/16 04:37:22;;;;;;;8.45;5.15;;;;;;;3.82;74.42;101981.14;1697212;84;21030;-69
2022/04/16 04:39:49;;;;;;;14.58;5.47;;;;;;;4.58;74.70;101980.58;1696648;84;21095;-69
2022/04/16 04:42:32;;;;;;;14.60;6.67;;;;;;;5.69;74.96;101981.03;1696656;84;21546;-70
2022/04/16 04:44:58;;;;;;;16.97;7.03;;;;;;;6.49;74.76;101984.44;1697268;84;21589;-70
2022/04/16 04:47:24;;;;;;;14.23;5.97;;;;;;;7.13;74.40;101983.94;1696016;84;21865;-70
2022/04/16 04:49:50;;;;;;;10.48;4.28;;;;;;;7.82;73.95;101985.93;1696661;84;20980;-70
2022/04/16 04:52:29;;;;;;;10.25;3.80;;;;;;;8.38;73.49;101992.34;1696897;84;21061;-70
2022/04/16 04:54:57;;;;;;;9.53;3.87;;;;;;;8.83;72.96;101992.44;1697047;84;21047;-70
2022/04/16 04:57:23;;;;;;;8.75;3.47;;;;;;;9.06;72.41;101987.48;1696878;83;21491;-70
2022/04/16 04:59:49;;;;;;;6.45;3.83;;;;;;;9.23;71.85;101992.30;1696662;83;21802;-70
2022/04/16 05:02:15;;;;;;;7.75;3.00;;;;;;;9.56;71.29;102001.22;1696442;84;20995;-70
2022/04/16 05:04:42;;;;;;;5.37;3.10;;;;;;;9.70;70.60;101998.28;1696623;84;21065;-70
2022/04/16 05:07:09;;;;;;;8.85;3.67;;;;;;;9.82;69.98;102010.59;1696891;84;21045;-70
2022/04/16 05:09:36;;;;;;;6.25;3.42;;;;;;;9.74;69.45;102015.23;1696803;84;20998;-70
2022/04/16 05:12:03;;;;;;;6.75;3.00;;;;;;;9.56;68.79;102013.20;1696634;84;21818;-70
2022/04/16 05:14:30;;;;;;;4.35;2.62;;;;;;;9.35;67.54;102025.95;1696562;84;21022;-70
2022/04/16 05:16:56;;;;;;;6.17;3.60;;;;;;;8.67;66.60;102037.98;1696513;84;21078;-70
2022/04/16 05:19:22;;;;;;;9.60;3.98;;;;;;;8.01;66.68;102040.73;1696735;84;21011;-70
2022/04/16 05:21:48;;;;;;;8.35;3.80;;;;;;;7.57;66.84;102042.25;1694774;84;20982;-70
2022/04/16 05:24:14;;;;;;;9.18;3.87;;;;;;;7.20;67.15;102049.34;1685155;83;21133;-70
2022/04/16 05:26:40;;;;;;;7.22;3.75;;;;;;;7.07;67.12;102045.86;1682187;84;21074;-71
2022/04/16 05:29:06;;;;;;;6.95;4.42;;;;;;;6.96;67.35;102049.26;1686663;84;21094;-71
2022/04/16 05:31:33;;;;;;;7.95;3.77;;;;;;;6.93;67.26;102046.82;1689114;84;21034;-70
2022/04/16 05:36:44;;;;;;;7.95;3.90;;;;;;;7.11;67.24;102054.80;1731825;82;22106;-71
2022/04/16 05:39:10;;;;;;;7.40;3.42;;;;;;;7.15;67.21;102054.96;1729181;82;21026;-70
2022/04/16 05:41:39;;;;;;;6.37;3.05;;;;;;;6.91;66.98;102059.32;1696240;84;21355;-70
2022/04/16 05:44:05;;;;;;;6.15;3.33;;;;;;;6.85;66.94;102070.36;1691946;84;21475;-70
2022/04/16 05:46:31;;;;;;;6.00;3.00;;;;;;;6.86;66.77;102070.74;1712779;81;21018;-72
2022/04/16 05:48:57;;;;;;;7.58;3.45;;;;;;;6.96;66.58;102075.78;1651127;85;21123;-70
2022/04/16 05:51:24;;;;;;;4.90;2.45;;;;;;;6.99;66.38;102064.95;1654620;84;21100;-70
2022/04/16 05:53:50;;;;;;;3.65;2.17;;;;;;;7.07;66.28;102073.24;1657007;85;21556;-70
2022/04/16 05:56:16;;;;;;;5.12;2.30;;;;;;;7.07;66.11;102073.24;1694896;84;21471;-70
2022/04/16 05:58:42;;;;;;;4.50;2.60;;;;;;;7.15;66.04;102066.05;1693860;84;20987;-70
2022/04/16 06:01:09;;;;;;;6.95;2.33;;;;;;;7.11;65.87;102070.72;1738275;81;21083;-69
2022/04/16 06:03:41;;;;;;;2.98;1.67;;;;;;;7.06;65.76;102075.52;1730574;82;21134;-70
2022/04/16 06:06:08;;;;;;;3.55;2.10;;;;;;;7.08;65.60;102070.94;1732836;80;21102;-70
2022/04/16 06:08:38;;;;;;;2.77;1.65;;;;;;;6.88;65.40;102076.77;1729050;81;21019;-70
2022/04/16 06:11:04;;;;;;;6.50;2.02;;;;;;;7.02;65.32;102080.66;1682248;84;21079;-71
2022/04/16 06:13:31;;;;;;;4.78;2.15;;;;;;;7.08;65.17;102074.91;1729723;82;21136;-71
2022/04/16 06:16:00;;;;;;;6.20;2.12;;;;;;;7.14;65.03;102075.84;1730575;82;20967;-71
2022/04/16 06:18:27;;;;;;;4.50;2.00;;;;;;;7.23;64.96;102080.48;1720729;82;21089;-71
2022/04/16 06:20:52;;;;;;;5.75;2.40;;;;;;;7.32;64.80;102077.18;1711462;82;20888;-71
2022/04/16 06:23:20;;;;;;;10.08;2.22;;;;;;;6.91;64.39;102079.21;1717658;82;20912;-70
2022/04/16 06:25:46;;;;;;;2.83;1.85;;;;;;;6.58;64.37;102073.06;1695436;84;21570;-71
2022/04/16 06:28:13;;;;;;;6.75;3.08;;;;;;;6.57;64.36;102089.94;1727066;82;21035;-70
2022/04/16 06:30:39;;;;;;;4.37;1.82;;;;;;;6.78;64.26;102087.64;1708328;82;20993;-71
2022/04/16 06:33:05;;;;;;;4.08;2.05;;;;;;;6.65;64.14;102092.08;1742909;82;21660;-70
2022/04/16 06:35:31;;;;;;;3.30;1.90;;;;;;;6.51;64.10;102095.16;1743807;82;21018;-70
2022/04/16 06:37:57;;;;;;;3.27;1.75;;;;;;;6.57;64.00;102087.29;1715966;83;21192;-70
2022/04/16 06:40:23;;;;;;;3.85;2.00;;;;;;;6.68;63.91;102090.55;1709474;83;20977;-70
2022/04/16 06:42:52;;;;;;;3.85;1.95;;;;;;;6.88;63.89;102094.02;1740596;80;21490;-70
2022/04/16 06:45:17;;;;;;;6.20;2.10;;;;;;;7.21;63.83;102085.55;1752415;79;20990;-70
2022/04/16 06:47:43;;;;;;;3.15;1.57;;;;;;;7.08;63.66;102098.79;1720653;82;21553;-71
2022/04/16 06:50:10;;;;;;;4.28;2.22;;;;;;;6.94;63.53;102093.58;1705571;82;21572;-71
2022/04/16 06:52:36;;;;;;;4.40;2.10;;;;;;;6.75;63.39;102096.66;1759599;80;21528;-70
2022/04/16 06:55:04;;;;;;;4.33;1.90;;;;;;;6.77;63.36;102092.56;1717103;82;21039;-70
2022/04/16 06:57:30;;;;;;;3.27;1.70;;;;;;;6.72;63.29;102102.14;1728260;82;21007;-70
2022/04/16 06:59:56;;;;;;;19.40;9.25;;;;;;;6.52;63.19;102108.79;1699740;82;21057;-71
2022/04/16 07:02:22;;;;;;;5.92;2.98;;;;;;;6.42;63.22;102095.78;1704783;82;21051;-71
2022/04/16 07:04:48;;;;;;;6.25;2.65;;;;;;;6.39;63.26;102086.72;1697741;84;21585;-71
2022/04/16 07:07:14;;;;;;;10.70;4.97;;;;;;;6.41;63.17;102103.34;1733606;82;21518;-71
2022/04/16 07:09:41;;;;;;;5.22;2.87;;;;;;;6.51;63.20;102098.28;1713628;82;21097;-70
2022/04/16 07:12:12;;;;;;;7.35;3.37;;;;;;;6.56;63.13;102109.91;1733588;82;21405;-71
2022/04/16 07:14:38;;;;;;;12.78;7.28;;;;;;;6.27;63.07;102115.80;1744426;80;21137;-71
2022/04/16 07:17:06;;;;;;;4.50;2.30;;;;;;;6.31;63.11;102115.50;1737235;82;21032;-70
2022/04/16 07:19:32;;;;;;;5.80;2.08;;;;;;;6.54;63.19;102113.50;1696301;84;21029;-70
2022/04/16 07:21:58;;;;;;;3.87;2.20;;;;;;;6.79;63.15;102106.58;1687597;84;21498;-70
2022/04/16 07:24:25;;;;;;;5.05;2.02;;;;;;;6.91;63.03;102116.34;1666143;85;21014;-70
2022/04/16 07:26:53;;;;;;;3.87;2.40;;;;;;;6.87;62.96;102122.33;1710279;83;21295;-71
2022/04/16 07:29:21;;;;;;;4.90;2.00;;;;;;;6.97;62.91;102115.91;1710757;83;21460;-71
2022/04/16 07:31:47;;;;;;;4.40;2.33;;;;;;;6.93;62.92;102119.75;1709374;82;21026;-71
2022/04/16 07:34:14;;;;;;;4.92;2.33;;;;;;;7.00;62.94;102117.06;1710649;82;21436;-71
2022/04/16 07:36:42;;;;;;;3.37;1.95;;;;;;;7.03;62.88;102120.82;1710973;83;21045;-71
2022/04/16 07:39:08;;;;;;;11.00;5.33;;;;;;;7.04;62.87;102125.15;1710032;83;21042;-71
2022/04/16 07:41:34;;;;;;;3.95;2.27;;;;;;;7.05;62.83;102121.55;1710249;82;21460;-71
2022/04/16 07:44:03;;;;;;;19.62;6.47;;;;;;;6.90;62.75;102118.61;1699606;83;20996;-71
2022/04/16 07:46:28;;;;;;;8.38;2.30;;;;;;;6.96;62.74;102123.52;1705055;82;21051;-71
2022/04/16 07:48:54;;;;;;;7.15;2.58;;;;;;;6.97;62.68;102127.38;1700506;83;21100;-71
2022/04/16 07:51:20;;;;;;;5.25;2.35;;;;;;;7.33;62.71;102108.55;1700677;83;21711;-71
2022/04/16 07:53:46;;;;;;;7.97;3.85;;;;;;;7.60;62.56;102129.67;1664413;85;21592;-71
2022/04/16 07:56:12;;;;;;;3.75;1.67;;;;;;;7.64;62.43;102137.77;1677688;84;21005;-71
2022/04/16 07:58:38;;;;;;;2.52;1.80;;;;;;;7.85;62.11;102135.77;1712809;82;20895;-71
2022/04/16 08:01:04;;;;;;;3.98;1.77;;;;;;;7.85;62.11;102135.77;1708627;82;21121;-72
2022/04/16 08:03:30;;;;;;;7.95;3.08;;;;;;;7.99;61.73;102129.45;1710794;83;21507;-72
2022/04/16 08:05:56;;;;;;;28.00;9.83;;;;;;;7.93;61.48;102138.73;1712950;83;21098;-73
2022/04/16 08:08:22;;;;;;;4.50;2.55;;;;;;;8.08;61.31;102131.94;1713251;82;21050;-74
2022/04/16 08:10:51;;;;;;;4.15;1.65;;;;;;;8.16;60.99;102133.57;1712956;82;21007;-73
2022/04/16 08:13:16;;;;;;;3.25;1.42;;;;;;;8.10;60.72;102136.17;1727515;82;21018;-74
2022/04/16 08:15:42;;;;;;;5.03;1.85;;;;;;;7.88;60.38;102145.34;1713064;82;21139;-74
2022/04/16 08:18:08;;;;;;;3.75;1.50;;;;;;;8.11;60.15;102139.20;1711936;82;20872;-74
2022/04/16 08:20:34;;;;;;;5.97;3.52;;;;;;;8.11;60.15;102139.20;1713379;83;21050;-74
2022/04/16 08:23:04;;;;;;;5.15;2.60;;;;;;;8.13;60.01;102148.41;1713056;83;20967;-72
2022/04/16 08:27:54;;;;;;;3.62;2.17;;;;;;;7.92;59.70;102146.80;1718443;82;21055;-73
2022/04/16 08:30:21;;;;;;;7.50;2.72;;;;;;;7.64;59.61;102147.06;1718609;82;21107;-73
2022/04/16 08:32:48;;;;;;;12.20;7.67;;;;;;;7.30;59.50;102154.73;1708879;82;21098;-73
2022/04/16 08:35:16;;;;;;;11.97;7.05;;;;;;;7.39;59.51;102145.27;1688222;84;21530;-73
2022/04/16 08:37:42;;;;;;;8.28;5.50;;;;;;;7.70;59.30;102162.58;1741602;82;21019;-73
2022/04/16 08:40:12;;;;;;;4.92;2.10;;;;;;;8.06;59.14;102147.16;1736936;82;21165;-73
2022/04/16 08:42:39;;;;;;;4.90;2.45;;;;;;;8.09;58.97;102141.14;1758362;80;21020;-72
2022/04/16 08:45:07;;;;;;;8.33;2.22;;;;;;;7.98;58.88;102141.06;1741570;82;21006;-73
2022/04/16 08:47:33;;;;;;;3.67;1.90;;;;;;;7.92;58.81;102150.78;1695352;84;21021;-72
2022/04/16 08:49:59;;;;;;;4.00;2.30;;;;;;;7.67;58.60;102154.83;1692852;84;21019;-72
2022/04/16 08:52:29;;;;;;;5.55;2.70;;;;;;;7.64;58.62;102153.22;1740646;82;21666;-72
2022/04/16 08:54:58;;;;;;;14.28;7.72;;;;;;;7.72;58.59;102155.34;1685627;83;21050;-73
2022/04/16 08:57:24;;;;;;;3.95;1.42;;;;;;;7.75;58.51;102165.74;1685102;84;21598;-72
2022/04/16 08:59:52;;;;;;;17.17;6.92;;;;;;;7.79;58.43;102160.11;1730401;82;21042;-72
2022/04/16 09:02:20;;;;;;;30.43;10.90;;;;;;;8.12;58.40;102162.17;1744645;80;21007;-72
2022/04/16 09:04:47;;;;;;;21.45;9.38;;;;;;;8.50;58.25;102161.58;1713652;82;21709;-72
2022/04/16 09:07:12;;;;;;;6.33;3.40;;;;;;;8.51;57.89;102167.24;1698580;84;21041;-72
2022/04/16 09:09:39;;;;;;;2.33;1.72;;;;;;;8.34;57.71;102180.08;1667084;84;21133;-72
2022/04/16 09:12:18;;;;;;;11.97;6.15;;;;;;;7.90;57.48;102168.17;1707904;83;21006;-72
2022/04/16 09:14:45;;;;;;;9.47;4.77;;;;;;;8.09;57.62;102159.74;1734226;81;21065;-72
2022/04/16 09:17:16;;;;;;;5.65;1.77;;;;;;;8.56;57.63;102174.89;1730734;82;21271;-72
2022/04/16 09:19:43;;;;;;;3.10;1.77;;;;;;;8.43;57.31;102166.13;1738583;81;21062;-72
2022/04/16 09:22:09;;;;;;;5.08;3.15;;;;;;;8.03;57.09;102168.13;1743448;80;21051;-72
2022/04/16 09:24:46;;;;;;;4.40;2.75;;;;;;;8.04;57.19;102169.84;1745356;80;21030;-73
2022/04/16 09:27:12;;;;;;;2.83;1.80;;;;;;;8.05;57.03;102176.86;1702935;83;21009;-73
2022/04/16 09:29:40;;;;;;;3.72;2.00;;;;;;;8.22;56.97;102163.20;1699965;84;21166;-73
2022/04/16 09:32:07;;;;;;;5.03;1.85;;;;;;;8.61;56.89;102167.44;1716866;83;21493;-73
2022/04/16 09:34:33;;;;;;;2.35;1.62;;;;;;;8.73;56.60;102158.52;1663064;82;21137;-72
2022/04/16 09:37:12;;;;;;;2.52;1.80;;;;;;;8.60;56.34;102168.86;1741793;81;21504;-72
2022/04/16 09:39:38;;;;;;;3.77;2.17;;;;;;;8.36;56.14;102159.56;1713141;81;21018;-72
2022/04/16 09:42:04;;;;;;;2.45;1.52;;;;;;;8.49;56.22;102169.18;1724776;81;21067;-73
2022/04/16 09:44:30;;;;;;;3.67;2.10;;;;;;;8.78;56.14;102172.81;1722181;82;21110;-73
2022/04/16 09:46:57;;;;;;;2.60;1.60;;;;;;;8.71;55.90;102165.78;1705349;82;21014;-73
2022/04/16 09:49:24;;;;;;;2.02;1.52;;;;;;;8.63;55.74;102169.96;1719907;82;21042;-72
2022/04/16 09:51:51;;;;;;;5.45;2.72;;;;;;;8.74;55.60;102167.36;1681588;83;21553;-72
2022/04/16 09:54:18;;;;;;;6.62;2.25;;;;;;;9.05;55.51;102168.06;1730112;81;21242;-73
2022/04/16 09:56:46;;;;;;;5.17;3.50;;;;;;;9.09;55.25;102161.55;1730984;82;21015;-72
2022/04/16 09:59:15;;;;;;;2.92;1.67;;;;;;;9.07;55.19;102174.14;1705064;83;20998;-72
2022/04/16 10:01:49;;;;;;;5.15;2.98;;;;;;;8.92;55.10;102169.97;1730006;82;21526;-72
2022/04/16 10:04:16;;;;;;;4.10;2.10;;;;;;;8.80;55.05;102185.50;1693401;82;21027;-72
2022/04/16 10:06:42;;;;;;;8.00;2.80;;;;;;;8.76;54.92;102186.73;1715028;82;21888;-72
2022/04/16 10:09:14;;;;;;;4.67;2.00;;;;;;;8.62;54.79;102184.24;1695211;84;21081;-72
2022/04/16 10:14:36;;;;;;;12.53;5.62;;;;;;;8.89;54.49;102177.70;1683792;83;21148;-72
2022/04/16 10:17:17;;;;;;;4.83;2.42;;;;;;;9.11;54.21;102190.72;1696902;83;21498;-72
2022/04/16 10:19:46;;;;;;;2.30;1.40;;;;;;;8.98;53.82;102184.12;1688804;83;21169;-72
2022/04/16 10:22:26;;;;;;;2.35;1.37;;;;;;;8.86;53.68;102191.72;1726423;82;21126;-72
2022/04/16 10:24:56;;;;;;;2.50;1.55;;;;;;;8.87;53.62;102187.59;1729126;82;21023;-72
2022/04/16 10:27:27;;;;;;;7.67;3.60;;;;;;;9.12;53.52;102191.92;1719331;81;21007;-72
2022/04/16 10:29:56;;;;;;;3.67;1.60;;;;;;;9.33;53.34;102187.61;1730161;82;21043;-72
2022/04/16 10:32:22;;;;;;;6.25;5.35;;;;;;;9.32;52.93;102185.91;1709476;82;21727;-72
2022/04/16 10:34:48;;;;;;;5.08;2.85;;;;;;;8.92;52.53;102192.59;1701299;84;21055;-72
2022/04/16 10:37:23;;;;;;;40.30;16.00;;;;;;;8.87;52.47;102184.09;1714024;82;21582;-72
2022/04/16 10:39:53;;;;;;;8.38;3.98;;;;;;;9.19;52.41;102190.48;1726533;81;21046;-72
2022/04/16 10:42:32;;;;;;;4.67;3.15;;;;;;;9.26;52.13;102186.39;1689837;83;21074;-72
2022/04/16 10:45:09;;;;;;;3.42;1.65;;;;;;;9.51;52.20;102181.34;1695941;84;21483;-72
2022/04/16 10:47:38;;;;;;;11.88;5.53;;;;;;;9.60;51.95;102175.80;1695815;83;20978;-72
2022/04/16 10:50:15;;;;;;;8.03;4.15;;;;;;;9.36;51.55;102206.02;1731135;82;21007;-72
2022/04/16 10:52:58;;;;;;;3.35;1.75;;;;;;;9.14;51.55;102192.67;1695885;84;21648;-72
2022/04/16 10:55:32;;;;;;;4.70;2.10;;;;;;;9.33;51.52;102188.95;1707592;82;21011;-72
2022/04/16 10:58:04;;;;;;;13.88;7.50;;;;;;;9.40;51.30;102183.52;1730687;82;21679;-72
2022/04/16 11:00:45;;;;;;;19.77;8.80;;;;;;;9.62;51.15;102195.16;1675768;84;21065;-72
2022/04/16 11:03:14;;;;;;;7.40;3.92;;;;;;;9.70;50.82;102186.95;1695479;84;21581;-72
2022/04/16 11:05:43;;;;;;;;;;;;;;;9.85;50.77;102184.90;1698200;84;21630;-72
2022/04/16 11:08:15;;;;;;;3.33;2.52;;;;;;;9.75;50.61;102183.42;1696022;83;20536;-72
2022/04/16 11:10:41;;;;;;;3.50;2.37;;;;;;;9.45;50.55;102198.66;1695352;84;21152;-72
2022/04/16 11:13:09;;;;;;;9.35;2.60;;;;;;;9.30;50.70;102190.52;1695591;84;21538;-72
2022/04/16 11:15:35;;;;;;;3.47;1.57;;;;;;;9.24;50.67;102200.31;1745769;81;21514;-72
2022/04/16 11:18:03;;;;;;;2.35;1.27;;;;;;;9.24;50.57;102194.98;1751108;81;20907;-72
2022/04/16 11:20:29;;;;;;;5.15;2.12;;;;;;;9.43;50.36;102191.26;1695666;84;21069;-72
2022/04/16 11:22:55;;;;;;;2.80;1.55;;;;;;;9.46;50.17;102195.02;1695219;84;21071;-72
2022/04/16 11:25:23;;;;;;;5.20;2.20;;;;;;;9.49;50.04;102195.28;1739802;81;20995;-72
2022/04/16 11:36:08;;;;;;;7.80;1.50;;;;;;;9.69;49.83;102189.23;1744072;82;21742;-71
2022/04/16 11:38:36;;;;;;;9.70;4.97;;;;;;;9.78;49.61;102193.02;1744619;81;21058;-71
2022/04/16 11:41:07;;;;;;;7.97;3.35;;;;;;;9.61;49.53;102201.45;1744216;82;21046;-71
2022/04/16 11:43:33;;;;;;;3.92;1.90;;;;;;;9.73;49.47;102184.04;1715844;82;21069;-71
2022/04/16 11:46:01;;;;;;;4.40;1.72;;;;;;;9.62;49.24;102197.83;1744442;81;20994;-71
2022/04/16 11:48:29;;;;;;;4.33;1.75;;;;;;;9.37;49.01;102197.06;1744381;82;21141;-72
2022/04/16 11:50:55;;;;;;;4.35;2.15;;;;;;;9.36;49.00;102200.69;1721993;82;21074;-72
2022/04/16 11:53:21;;;;;;;5.05;2.40;;;;;;;9.56;49.00;102196.98;1743965;82;21037;-71
2022/04/16 11:55:48;;;;;;;2.85;1.67;;;;;;;9.83;48.87;102197.48;1743800;80;21921;-71
2022/04/16 11:58:14;;;;;;;2.87;1.52;;;;;;;9.91;48.73;102199.06;1703076;83;21048;-71
2022/04/16 12:00:51;;;;;;;8.35;3.08;;;;;;;9.94;48.56;102188.16;1712344;83;21148;-71